createdAt,value
2018-07-09T00:00:54.790Z,79.36
2018-07-09T00:02:48.086Z,79.93
2018-07-09T00:03:48.006Z,79.93
2018-07-09T00:05:41.342Z,80.12
2018-07-09T00:06:41.280Z,79.74
2018-07-09T00:08:34.566Z,80.22
2018-07-09T00:09:34.484Z,80.79
2018-07-09T00:11:27.763Z,80.41
2018-07-09T00:12:27.701Z,80.60
2018-07-09T00:14:22.101Z,81.37
2018-07-09T00:15:21.918Z,81.52
2018-07-09T00:17:15.191Z,81.46
2018-07-09T00:18:15.129Z,82.09
2018-07-09T00:20:08.528Z,82.48
2018-07-09T00:21:08.342Z,82.38
2018-07-09T00:23:01.646Z,82.96
2018-07-09T00:24:01.555Z,82.86
2018-07-09T00:25:54.832Z,82.86
2018-07-09T00:26:54.767Z,82.67
2018-07-09T00:28:48.064Z,82.76
2018-07-09T00:29:47.980Z,83.09
2018-07-09T00:31:41.342Z,82.81
2018-07-09T00:32:41.279Z,82.96
2018-07-09T00:34:34.575Z,84.11
2018-07-09T00:35:34.493Z,83.72
2018-07-09T00:37:27.770Z,84.01
2018-07-09T00:38:27.705Z,84.01
2018-07-09T00:40:21.004Z,84.78
2018-07-09T00:41:20.923Z,84.30
2018-07-09T00:43:14.201Z,84.11
2018-07-09T00:44:14.135Z,84.68
2018-07-09T00:46:07.536Z,85.25
2018-07-09T00:47:07.348Z,85.06
2018-07-09T00:49:00.648Z,84.88
2018-07-09T00:50:00.563Z,85.54
2018-07-09T00:51:53.837Z,85.54
2018-07-09T00:52:53.775Z,85.45
2018-07-09T00:54:47.069Z,86.02
2018-07-09T00:55:46.987Z,86.50
2018-07-09T00:57:40.263Z,87.23
2018-07-09T00:58:40.203Z,87.51
2018-07-09T01:00:33.494Z,86.98
2018-07-09T01:01:33.411Z,87.37
2018-07-09T01:03:26.690Z,87.17
2018-07-09T01:04:26.627Z,87.46
2018-07-09T01:06:19.922Z,87.61
2018-07-09T01:07:19.838Z,87.13
2018-07-09T01:09:13.133Z,87.80
2018-07-09T01:10:13.051Z,87.80
2018-07-09T01:12:06.326Z,87.74
2018-07-09T01:13:06.263Z,87.90
2018-07-09T01:14:59.562Z,88.18
2018-07-09T01:15:59.475Z,88.28
2018-07-09T01:17:52.742Z,88.37
2018-07-09T01:18:52.681Z,88.47
2018-07-09T01:20:46.080Z,88.85
2018-07-09T01:21:45.893Z,88.85
2018-07-09T01:23:39.167Z,89.23
2018-07-09T01:24:39.106Z,89.52
2018-07-09T01:26:32.400Z,89.23
2018-07-09T01:27:32.317Z,90.00
2018-07-09T01:29:25.612Z,90.09
2018-07-09T01:30:25.528Z,90.58
2018-07-09T01:32:18.805Z,91.68
2018-07-09T01:33:18.743Z,91.68
2018-07-09T01:35:12.037Z,91.77
2018-07-09T01:36:11.953Z,91.30
2018-07-09T01:38:05.222Z,91.77
2018-07-09T01:39:05.158Z,91.20
2018-07-09T01:40:58.450Z,91.68
2018-07-09T01:41:58.370Z,91.49
2018-07-09T01:43:51.643Z,92.25
2018-07-09T01:44:51.579Z,92.35
2018-07-09T01:46:44.980Z,92.16
2018-07-09T01:47:44.791Z,92.25
2018-07-09T01:49:38.064Z,92.06
2018-07-09T01:50:38.002Z,92.25
2018-07-09T01:52:31.362Z,92.25
2018-07-09T01:53:31.278Z,92.06
2018-07-09T01:55:24.573Z,92.35
2018-07-09T01:56:24.487Z,92.35
2018-07-09T01:58:17.756Z,91.87
2018-07-09T01:59:17.687Z,92.06
2018-07-09T02:01:11.092Z,91.97
2018-07-09T02:02:10.903Z,92.25
2018-07-09T02:04:04.177Z,92.25
2018-07-09T02:05:04.113Z,92.44
2018-07-09T02:06:57.411Z,93.02
2018-07-09T02:07:57.330Z,92.73
2018-07-09T02:09:50.604Z,92.73
2018-07-09T02:10:50.540Z,92.83
2018-07-09T02:12:43.839Z,93.02
2018-07-09T02:13:43.753Z,92.92
2018-07-09T02:15:37.046Z,93.12
2018-07-09T02:16:36.965Z,93.59
2018-07-09T02:18:30.230Z,93.50
2018-07-09T02:19:30.166Z,94.07
2018-07-09T02:21:23.460Z,94.02
2018-07-09T02:22:23.378Z,94.41
2018-07-09T02:24:16.757Z,94.55
2018-07-09T02:25:16.589Z,94.74
2018-07-09T02:27:09.878Z,94.79
2018-07-09T02:28:09.797Z,94.89
2018-07-09T02:30:03.071Z,95.17
2018-07-09T02:31:03.008Z,95.36
2018-07-09T02:32:56.301Z,95.27
2018-07-09T02:33:56.217Z,96.03
2018-07-09T02:35:49.513Z,95.56
2018-07-09T02:36:49.430Z,95.65
2018-07-09T02:38:42.713Z,96.32
2018-07-09T02:39:42.629Z,96.22
2018-07-09T02:41:35.922Z,96.51
2018-07-09T02:42:35.839Z,96.51
2018-07-09T02:44:29.221Z,96.89
2018-07-09T02:45:29.061Z,96.80
2018-07-09T02:47:22.345Z,96.80
2018-07-09T02:48:22.261Z,97.28
2018-07-09T02:50:15.537Z,97.95
2018-07-09T02:51:15.471Z,97.95
2018-07-09T02:53:08.765Z,98.90
2018-07-09T02:54:08.690Z,98.61
2018-07-09T02:56:02.061Z,98.61
2018-07-09T02:57:01.900Z,98.61
2018-07-09T02:58:55.183Z,98.90
2018-07-09T02:59:55.102Z,99.19
2018-07-09T03:01:48.394Z,99.10
2018-07-09T03:02:48.312Z,99.10
2018-07-09T03:04:41.584Z,99.19
2018-07-09T03:05:41.520Z,99.86
2018-07-09T03:07:34.321Z,99.90
2018-07-09T03:08:34.238Z,99.99
2018-07-09T03:10:27.509Z,99.99
2018-07-09T03:11:27.448Z,99.99
2018-07-09T03:13:20.739Z,99.99
2018-07-09T03:14:20.657Z,99.99
2018-07-09T03:16:13.930Z,99.99
2018-07-09T03:17:13.866Z,99.99
2018-07-09T03:19:07.227Z,99.99
2018-07-09T03:20:07.081Z,99.99
2018-07-09T03:22:00.371Z,99.99
2018-07-09T03:23:00.288Z,99.99
2018-07-09T03:24:53.667Z,99.99
2018-07-09T03:25:53.502Z,99.99
2018-07-09T03:27:46.785Z,99.99
2018-07-09T03:28:46.703Z,99.99
2018-07-09T03:30:39.975Z,99.99
2018-07-09T03:31:39.912Z,99.99
2018-07-09T03:33:33.203Z,99.99
2018-07-09T03:34:33.121Z,99.99
2018-07-09T03:36:26.500Z,99.99
2018-07-09T03:37:26.332Z,99.99
2018-07-09T03:39:19.626Z,99.99
2018-07-09T03:40:19.541Z,99.99
2018-07-09T03:42:12.814Z,99.99
2018-07-09T03:43:12.754Z,99.99
2018-07-09T03:45:06.045Z,99.99
2018-07-09T03:46:05.960Z,99.99
2018-07-09T03:47:59.360Z,99.99
2018-07-09T03:48:59.162Z,99.99
2018-07-09T03:50:52.437Z,99.99
2018-07-09T03:51:52.372Z,99.99
2018-07-09T03:53:45.666Z,99.99
2018-07-09T03:54:45.582Z,99.99
2018-07-09T03:56:38.866Z,99.99
2018-07-09T03:57:38.790Z,99.99
2018-07-09T03:59:32.196Z,99.99
2018-07-09T04:00:31.999Z,99.99
2018-07-09T04:02:25.342Z,99.99
2018-07-09T04:03:25.278Z,99.99
2018-07-09T04:05:18.676Z,99.99
2018-07-09T04:06:18.486Z,99.99
2018-07-09T04:08:11.803Z,99.99
2018-07-09T04:09:11.710Z,99.99
2018-07-09T04:11:05.090Z,99.99
2018-07-09T04:12:04.919Z,99.99
2018-07-09T04:13:58.213Z,99.99
2018-07-09T04:14:58.132Z,99.99
2018-07-09T04:16:51.402Z,99.99
2018-07-09T04:17:51.339Z,99.99
2018-07-09T04:19:44.637Z,99.99
2018-07-09T04:20:44.554Z,99.99
2018-07-09T04:22:37.826Z,99.99
2018-07-09T04:23:37.763Z,99.99
2018-07-09T04:25:31.054Z,99.99
2018-07-09T04:26:30.971Z,99.99
2018-07-09T04:28:24.271Z,99.99
2018-07-09T04:29:24.174Z,99.99
2018-07-09T04:31:17.470Z,99.99
2018-07-09T04:32:17.403Z,99.99
2018-07-09T04:34:10.715Z,99.99
2018-07-09T04:35:10.612Z,99.99
2018-07-09T04:37:03.886Z,99.99
2018-07-09T04:38:03.821Z,99.99
2018-07-09T04:39:57.113Z,99.99
2018-07-09T04:40:57.030Z,99.99
2018-07-09T04:42:50.304Z,99.99
2018-07-09T04:43:50.239Z,99.99
2018-07-09T04:45:43.533Z,99.99
2018-07-09T04:46:43.451Z,99.99
2018-07-09T04:48:36.725Z,99.99
2018-07-09T04:49:36.663Z,99.99
2018-07-09T04:51:29.961Z,99.99
2018-07-09T04:52:29.875Z,99.99
2018-07-09T04:54:23.275Z,99.99
2018-07-09T04:55:23.085Z,99.99
2018-07-09T04:57:16.370Z,99.99
2018-07-09T04:58:16.307Z,99.99
2018-07-09T05:00:09.598Z,99.99
2018-07-09T05:01:09.514Z,99.99
2018-07-09T05:03:02.791Z,99.99
2018-07-09T05:04:02.744Z,99.99
2018-07-09T05:05:56.021Z,99.99
2018-07-09T05:06:55.938Z,99.99
2018-07-09T05:08:49.214Z,99.99
2018-07-09T05:09:49.151Z,99.99
2018-07-09T05:11:42.445Z,99.99
2018-07-09T05:12:42.363Z,99.99
2018-07-09T05:14:35.638Z,99.99
2018-07-09T05:15:35.573Z,99.99
2018-07-09T05:17:28.868Z,99.99
2018-07-09T05:18:28.787Z,99.99
2018-07-09T05:20:22.081Z,99.99
2018-07-09T05:21:22.000Z,99.99
2018-07-09T05:23:15.342Z,99.99
2018-07-09T05:24:15.278Z,99.99
2018-07-09T05:26:08.676Z,99.99
2018-07-09T05:27:08.490Z,99.99
2018-07-09T05:29:01.768Z,99.99
2018-07-09T05:30:01.702Z,99.99
2018-07-09T05:31:54.995Z,99.99
2018-07-09T05:32:54.914Z,99.99
2018-07-09T05:34:48.190Z,99.99
2018-07-09T05:35:48.127Z,99.99
2018-07-09T05:37:41.422Z,99.99
2018-07-09T05:38:41.336Z,99.99
2018-07-09T05:40:34.636Z,99.99
2018-07-09T05:41:34.554Z,99.99
2018-07-09T05:43:27.831Z,99.99
2018-07-09T05:44:27.764Z,99.99
2018-07-09T05:46:21.065Z,99.99
2018-07-09T05:47:20.980Z,99.99
2018-07-09T05:49:14.256Z,99.99
2018-07-09T05:50:14.193Z,99.99
2018-07-09T05:52:07.491Z,99.99
2018-07-09T05:53:07.410Z,99.99
2018-07-09T05:55:00.688Z,99.99
2018-07-09T05:56:00.624Z,99.99
2018-07-09T05:57:53.917Z,99.99
2018-07-09T05:58:53.884Z,99.99
2018-07-09T06:00:47.129Z,99.99
2018-07-09T06:01:47.046Z,99.99
2018-07-09T06:03:40.326Z,99.99
2018-07-09T06:04:40.261Z,99.99
2018-07-09T06:06:33.557Z,99.77
2018-07-09T06:07:33.477Z,99.99
2018-07-09T06:09:26.757Z,99.99
2018-07-09T06:10:26.696Z,99.99
2018-07-09T06:12:19.999Z,99.99
2018-07-09T06:13:19.922Z,99.87
2018-07-09T06:15:13.201Z,99.99
2018-07-09T06:16:13.139Z,99.99
2018-07-09T06:18:06.432Z,98.67
2018-07-09T06:19:06.352Z,99.99
2018-07-09T06:20:59.757Z,99.99
2018-07-09T06:21:59.576Z,99.20
2018-07-09T06:23:52.857Z,99.99
2018-07-09T06:24:52.796Z,99.99
2018-07-09T06:26:46.203Z,99.34
2018-07-09T06:27:46.020Z,98.19
2018-07-09T06:29:39.344Z,98.00
2018-07-09T06:30:39.287Z,98.10
2018-07-09T06:32:32.588Z,98.38
2018-07-09T06:33:32.511Z,97.91
2018-07-09T06:35:25.792Z,98.48
2018-07-09T06:36:25.734Z,98.58
2018-07-09T06:38:19.029Z,96.70
2018-07-09T06:39:18.947Z,96.51
2018-07-09T06:41:12.862Z,95.17
2018-07-09T06:42:12.170Z,94.88
2018-07-09T06:44:05.557Z,93.29
2018-07-09T06:45:05.395Z,92.43
2018-07-09T06:46:58.801Z,95.60
2018-07-09T06:47:58.615Z,96.47
2018-07-09T06:49:51.905Z,98.10
2018-07-09T06:50:51.847Z,98.00
2018-07-09T06:52:45.168Z,97.33
2018-07-09T06:53:45.091Z,97.91
2018-07-09T06:55:38.374Z,97.42
2018-07-09T06:56:38.320Z,97.42
2018-07-09T06:58:31.623Z,96.61
2018-07-09T06:59:31.548Z,96.32
2018-07-09T07:01:24.859Z,95.36
2018-07-09T07:02:24.815Z,96.27
2018-07-09T07:04:18.125Z,96.13
2018-07-09T07:05:18.041Z,94.78
2018-07-09T07:07:11.365Z,93.96
2018-07-09T07:08:11.289Z,93.49
2018-07-09T07:10:05.577Z,93.68
2018-07-09T07:11:05.518Z,92.86
2018-07-09T07:12:58.821Z,91.22
2018-07-09T07:13:58.743Z,90.65
2018-07-09T07:15:52.040Z,88.48
2018-07-09T07:16:51.980Z,88.24
2018-07-09T07:18:45.369Z,86.02
2018-07-09T07:19:45.298Z,85.44
2018-07-09T07:21:38.578Z,86.31
2018-07-09T07:22:38.532Z,85.78
2018-07-09T07:24:31.830Z,80.23
2018-07-09T07:25:31.754Z,80.71
2018-07-09T07:27:25.068Z,78.92
2018-07-09T07:28:24.993Z,79.08
2018-07-09T07:30:18.284Z,77.67
2018-07-09T07:31:18.228Z,79.13
2018-07-09T07:33:11.567Z,80.73
2018-07-09T07:34:11.468Z,81.30
2018-07-09T07:36:04.858Z,81.88
2018-07-09T07:37:04.705Z,81.84
2018-07-09T07:38:58.016Z,83.67
2018-07-09T07:39:57.940Z,83.42
2018-07-09T07:41:51.350Z,82.08
2018-07-09T07:42:51.174Z,81.02
2018-07-09T07:44:44.514Z,80.54
2018-07-09T07:45:44.409Z,80.92
2018-07-09T07:47:37.818Z,80.38
2018-07-09T07:48:37.642Z,80.00
2018-07-09T07:50:31.052Z,77.63
2018-07-09T07:51:30.875Z,78.75
2018-07-09T07:53:24.193Z,77.69
2018-07-09T07:54:24.121Z,77.78
2018-07-09T07:56:17.411Z,75.07
2018-07-09T07:57:17.354Z,74.45
2018-07-09T07:59:10.675Z,74.55
2018-07-09T08:00:10.601Z,74.45
2018-07-09T08:02:03.890Z,76.96
2018-07-09T08:03:03.835Z,76.38
2018-07-09T08:04:57.141Z,76.42
2018-07-09T08:05:57.065Z,76.71
2018-07-09T08:07:50.360Z,76.90
2018-07-09T08:08:50.302Z,76.80
2018-07-09T08:10:43.627Z,76.03
2018-07-09T08:11:48.567Z,76.23
2018-07-09T08:13:36.914Z,75.84
2018-07-09T08:14:36.782Z,74.97
2018-07-09T08:16:30.068Z,74.68
2018-07-09T08:17:30.013Z,74.10
2018-07-09T08:19:23.368Z,72.69
2018-07-09T08:20:23.294Z,72.75
2018-07-09T08:22:16.583Z,72.89
2018-07-09T08:23:16.526Z,74.07
2018-07-09T08:25:09.917Z,75.32
2018-07-09T08:26:09.761Z,75.86
2018-07-09T08:28:03.071Z,79.10
2018-07-09T08:29:03.000Z,80.06
2018-07-09T08:30:56.370Z,77.34
2018-07-09T08:31:56.232Z,76.03
2018-07-09T08:33:49.541Z,74.14
2018-07-09T08:34:49.465Z,75.05
2018-07-09T08:36:42.857Z,69.84
2018-07-09T08:37:42.701Z,70.48
2018-07-09T08:39:36.010Z,73.01
2018-07-09T08:40:35.938Z,73.97
2018-07-09T08:42:28.794Z,73.91
2018-07-09T08:43:28.737Z,74.55
2018-07-09T08:45:22.148Z,74.45
2018-07-09T08:46:21.976Z,74.58
2018-07-09T08:48:15.352Z,70.80
2018-07-09T08:49:15.293Z,70.57
2018-07-09T08:51:08.707Z,71.34
2018-07-09T08:52:08.531Z,71.34
2018-07-09T08:54:01.842Z,71.25
2018-07-09T08:55:01.766Z,70.57
2018-07-09T08:56:55.061Z,67.20
2018-07-09T08:57:55.007Z,66.88
2018-07-09T08:59:48.306Z,70.09
2018-07-09T09:00:48.256Z,69.78
2018-07-09T09:02:41.523Z,67.52
2018-07-09T09:03:41.473Z,66.72
2018-07-09T09:05:34.779Z,64.31
2018-07-09T09:06:34.709Z,62.59
2018-07-09T09:08:27.997Z,66.69
2018-07-09T09:09:27.943Z,65.50
2018-07-09T09:11:21.857Z,65.30
2018-07-09T09:12:21.178Z,67.01
2018-07-09T09:14:14.498Z,67.40
2018-07-09T09:15:14.425Z,68.13
2018-07-09T09:17:07.729Z,69.49
2018-07-09T09:18:07.676Z,69.64
2018-07-09T09:20:01.980Z,70.76
2018-07-09T09:21:01.908Z,71.83
2018-07-09T09:22:55.200Z,73.05
2018-07-09T09:23:55.145Z,73.24
2018-07-09T09:25:48.462Z,72.89
2018-07-09T09:26:48.385Z,72.21
2018-07-09T09:28:41.672Z,71.00
2018-07-09T09:29:41.617Z,71.44
2018-07-09T09:31:35.007Z,73.08
2018-07-09T09:32:34.856Z,73.37
2018-07-09T09:34:29.168Z,72.99
2018-07-09T09:35:29.093Z,72.89
2018-07-09T09:37:22.393Z,72.12
2018-07-09T09:38:22.334Z,72.63
2018-07-09T09:40:16.764Z,72.69
2018-07-09T09:41:16.576Z,72.92
2018-07-09T09:43:09.895Z,72.15
2018-07-09T09:44:09.803Z,72.34
2018-07-09T09:46:03.114Z,72.50
2018-07-09T09:47:03.040Z,73.57
2018-07-09T09:48:56.337Z,73.57
2018-07-09T09:49:56.282Z,73.02
2018-07-09T09:51:49.578Z,72.44
2018-07-09T09:52:49.502Z,73.27
2018-07-09T09:54:42.781Z,73.89
2018-07-09T09:55:42.726Z,72.73
2018-07-09T09:57:36.061Z,72.73
2018-07-09T09:58:35.963Z,72.92
2018-07-09T10:00:30.333Z,74.10
2018-07-09T10:01:30.196Z,75.07
2018-07-09T10:03:23.486Z,75.55
2018-07-09T10:04:23.430Z,75.40
2018-07-09T10:06:16.740Z,73.95
2018-07-09T10:07:16.661Z,73.31
2018-07-09T10:09:09.956Z,74.14
2018-07-09T10:10:09.900Z,74.43
2018-07-09T10:12:03.309Z,73.41
2018-07-09T10:13:03.133Z,73.89
2018-07-09T10:14:56.423Z,72.67
2018-07-09T10:15:56.369Z,72.52
2018-07-09T10:17:50.667Z,70.42
2018-07-09T10:18:50.592Z,69.62
2018-07-09T10:20:44.013Z,72.92
2018-07-09T10:21:43.834Z,74.62
2018-07-09T10:23:37.207Z,75.72
2018-07-09T10:24:37.065Z,74.02
2018-07-09T10:26:30.369Z,72.03
2018-07-09T10:27:30.304Z,71.70
2018-07-09T10:29:23.606Z,73.11
2018-07-09T10:30:23.596Z,73.11
2018-07-09T10:32:16.857Z,75.10
2018-07-09T10:33:16.783Z,74.76
2018-07-09T10:35:10.075Z,73.54
2018-07-09T10:36:10.019Z,73.11
2018-07-09T10:38:04.391Z,73.83
2018-07-09T10:39:04.296Z,74.37
2018-07-09T10:40:57.606Z,74.08
2018-07-09T10:41:57.533Z,75.40
2018-07-09T10:43:50.821Z,77.38
2018-07-09T10:44:50.766Z,78.15
2018-07-09T10:46:45.075Z,77.90
2018-07-09T10:47:45.000Z,76.75
2018-07-09T10:49:38.347Z,76.45
2018-07-09T10:50:38.289Z,77.00
2018-07-09T10:52:31.599Z,76.65
2018-07-09T10:53:31.522Z,76.40
2018-07-09T10:55:24.816Z,75.82
2018-07-09T10:56:24.756Z,75.59
2018-07-09T10:58:18.059Z,75.62
2018-07-09T10:59:17.988Z,76.01
2018-07-09T11:01:11.294Z,76.07
2018-07-09T11:02:11.217Z,76.17
2018-07-09T11:04:04.511Z,75.82
2018-07-09T11:05:04.455Z,75.59
2018-07-09T11:06:57.758Z,76.45
2018-07-09T11:07:57.683Z,76.07
2018-07-09T11:09:50.973Z,76.84
2018-07-09T11:10:50.924Z,76.30
2018-07-09T11:12:44.226Z,77.90
2018-07-09T11:13:44.163Z,78.19
2018-07-09T11:15:37.436Z,77.90
2018-07-09T11:16:37.376Z,78.34
2018-07-09T11:18:30.676Z,78.83
2018-07-09T11:19:30.598Z,78.63
2018-07-09T11:21:24.040Z,79.31
2018-07-09T11:22:23.881Z,79.21
2018-07-09T11:24:17.717Z,78.83
2018-07-09T11:25:17.058Z,78.67
2018-07-09T11:27:10.367Z,78.83
2018-07-09T11:28:10.289Z,79.21
2018-07-09T11:30:03.634Z,78.00
2018-07-09T11:31:03.579Z,77.81
2018-07-09T11:32:56.828Z,78.92
2018-07-09T11:33:56.751Z,79.69
2018-07-09T11:35:50.042Z,79.31
2018-07-09T11:36:49.982Z,78.34
2018-07-09T11:38:43.391Z,78.67
2018-07-09T11:39:43.206Z,78.09
2018-07-09T11:41:36.510Z,78.19
2018-07-09T11:42:36.436Z,79.02
2018-07-09T11:44:29.836Z,79.25
2018-07-09T11:45:29.668Z,78.38
2018-07-09T11:47:22.972Z,77.71
2018-07-09T11:48:22.901Z,77.36
2018-07-09T11:50:17.285Z,77.51
2018-07-09T11:51:17.160Z,77.90
2018-07-09T11:53:10.446Z,78.38
2018-07-09T11:54:10.373Z,77.81
2018-07-09T11:56:03.672Z,76.78
2018-07-09T11:57:03.649Z,75.67
2018-07-09T11:58:57.956Z,74.06
2018-07-09T11:59:57.839Z,74.31
2018-07-09T12:01:51.187Z,75.43
2018-07-09T12:02:51.073Z,76.75
2018-07-09T12:04:45.432Z,76.10
2018-07-09T12:05:45.306Z,76.10
2018-07-09T12:07:39.751Z,75.62
2018-07-09T12:08:39.596Z,75.92
2018-07-09T12:10:33.833Z,75.34
2018-07-09T12:11:33.777Z,75.40
2018-07-09T12:13:28.085Z,75.78
2018-07-09T12:14:28.010Z,75.68
2018-07-09T12:16:23.900Z,75.88
2018-07-09T12:17:23.755Z,75.72
2018-07-09T12:19:17.066Z,74.12
2018-07-09T12:20:16.986Z,73.00
2018-07-09T12:22:11.282Z,71.68
2018-07-09T12:23:11.225Z,71.68
2018-07-09T12:25:04.533Z,72.42
2018-07-09T12:26:04.461Z,72.03
2018-07-09T12:27:58.869Z,70.90
2018-07-09T12:28:58.701Z,69.74
2018-07-09T12:30:54.494Z,70.87
2018-07-09T12:31:54.440Z,72.77
2018-07-09T12:33:47.767Z,73.63
2018-07-09T12:34:47.679Z,73.15
2018-07-09T12:36:42.070Z,73.25
2018-07-09T12:37:41.914Z,73.25
2018-07-09T12:39:35.222Z,72.77
2018-07-09T12:40:35.158Z,72.80
2018-07-09T12:42:29.449Z,73.06
2018-07-09T12:43:29.393Z,72.77
2018-07-09T12:45:22.706Z,71.55
2018-07-09T12:46:22.629Z,72.32
2018-07-09T12:48:16.040Z,71.97
2018-07-09T12:49:15.856Z,71.10
2018-07-09T12:51:10.188Z,69.17
2018-07-09T12:52:10.131Z,69.56
2018-07-09T12:54:03.401Z,70.48
2018-07-09T12:55:03.328Z,70.52
2018-07-09T12:56:56.618Z,69.46
2018-07-09T12:57:56.566Z,69.26
2018-07-09T12:59:49.887Z,68.20
2018-07-09T13:00:49.802Z,68.68
2018-07-09T13:02:43.097Z,69.62
2018-07-09T13:03:43.041Z,69.56
2018-07-09T13:05:36.366Z,69.59
2018-07-09T13:06:36.293Z,67.59
2018-07-09T13:08:29.602Z,67.46
2018-07-09T13:09:29.516Z,67.66
2018-07-09T13:11:22.813Z,66.43
2018-07-09T13:12:22.764Z,66.14
2018-07-09T13:14:16.072Z,66.91
2018-07-09T13:15:15.996Z,66.47
2018-07-09T13:17:09.292Z,65.40
2018-07-09T13:18:09.237Z,66.24
2018-07-09T13:20:02.560Z,67.59
2018-07-09T13:21:02.475Z,66.14
2018-07-09T13:22:55.762Z,67.27
2018-07-09T13:23:55.708Z,67.46
2018-07-09T13:25:49.020Z,67.94
2018-07-09T13:26:48.945Z,67.66
2018-07-09T13:28:42.255Z,66.78
2018-07-09T13:29:42.174Z,66.78
2018-07-09T13:31:35.466Z,65.37
2018-07-09T13:32:35.411Z,64.82
2018-07-09T13:34:28.726Z,64.62
2018-07-09T13:35:28.649Z,66.08
2018-07-09T13:37:21.941Z,68.40
2018-07-09T13:38:21.900Z,68.49
2018-07-09T13:40:15.198Z,68.40
2018-07-09T13:41:15.123Z,68.20
2018-07-09T13:43:08.461Z,68.30
2018-07-09T13:44:08.356Z,68.40
2018-07-09T13:46:01.674Z,67.27
2018-07-09T13:47:01.601Z,67.85
2018-07-09T13:48:54.938Z,67.46
2018-07-09T13:49:54.832Z,66.72
2018-07-09T13:51:48.142Z,65.11
2018-07-09T13:52:48.066Z,64.85
2018-07-09T13:54:41.379Z,65.08
2018-07-09T13:55:41.306Z,65.40
2018-07-09T13:57:34.698Z,66.20
2018-07-09T13:58:34.544Z,67.24
2018-07-09T14:00:27.852Z,67.85
2018-07-09T14:01:27.779Z,68.68
2018-07-09T14:03:21.068Z,68.82
2018-07-09T14:04:21.014Z,67.40
2018-07-09T14:06:14.370Z,67.21
2018-07-09T14:07:14.293Z,66.69
2018-07-09T14:09:07.604Z,67.98
2018-07-09T14:10:07.531Z,67.30
2018-07-09T14:12:00.823Z,67.59
2018-07-09T14:13:00.767Z,67.56
2018-07-09T14:14:54.173Z,68.43
2018-07-09T14:15:54.001Z,68.43
2018-07-09T14:17:47.321Z,68.62
2018-07-09T14:18:47.321Z,68.37
2018-07-09T14:20:40.572Z,69.71
2018-07-09T14:21:40.497Z,70.87
2018-07-09T14:23:33.789Z,70.87
2018-07-09T14:24:33.731Z,71.58
2018-07-09T14:26:27.041Z,70.23
2018-07-09T14:27:26.965Z,70.78
2018-07-09T14:29:20.347Z,70.62
2018-07-09T14:30:20.290Z,70.78
2018-07-09T14:32:13.599Z,71.80
2018-07-09T14:33:13.522Z,72.22
2018-07-09T14:35:06.829Z,71.94
2018-07-09T14:36:06.755Z,71.94
2018-07-09T14:38:00.035Z,70.87
2018-07-09T14:38:59.976Z,70.81
2018-07-09T14:40:53.286Z,71.06
2018-07-09T14:41:53.208Z,71.26
2018-07-09T14:43:46.497Z,71.26
2018-07-09T14:44:46.441Z,72.03
2018-07-09T14:46:39.746Z,71.26
2018-07-09T14:47:39.671Z,71.61
2018-07-09T14:49:32.960Z,72.19
2018-07-09T14:50:32.906Z,72.48
2018-07-09T14:52:26.207Z,75.67
2018-07-09T14:53:26.131Z,79.81
2018-07-09T14:55:19.543Z,82.62
2018-07-09T14:56:19.360Z,83.20
2018-07-09T14:58:12.749Z,84.80
2018-07-09T14:59:12.580Z,86.05
2018-07-09T15:01:05.988Z,90.58
2018-07-09T15:02:05.811Z,90.10
2018-07-09T15:03:59.196Z,90.48
2018-07-09T15:04:59.034Z,89.04
2018-07-09T15:06:52.367Z,89.81
2018-07-09T15:07:52.289Z,89.67
2018-07-09T15:09:45.578Z,88.22
2018-07-09T15:10:45.517Z,89.57
2018-07-09T15:12:38.826Z,86.72
2018-07-09T15:13:38.750Z,87.30
2018-07-09T15:15:32.066Z,86.68
2018-07-09T15:16:31.977Z,86.48
2018-07-09T15:18:25.370Z,86.77
2018-07-09T15:19:25.201Z,87.64
2018-07-09T15:21:19.506Z,88.02
2018-07-09T15:22:19.429Z,88.79
2018-07-09T15:24:12.717Z,88.26
2018-07-09T15:25:12.660Z,88.65
2018-07-09T15:27:05.966Z,86.62
2018-07-09T15:28:05.888Z,84.50
2018-07-09T15:29:59.173Z,84.83
2018-07-09T15:30:59.117Z,84.64
2018-07-09T15:32:52.424Z,81.26
2018-07-09T15:33:52.350Z,81.20
2018-07-09T15:35:45.636Z,80.76
2018-07-09T15:36:45.580Z,80.14
2018-07-09T15:38:38.882Z,81.49
2018-07-09T15:39:38.807Z,80.53
2018-07-09T15:41:32.117Z,79.22
2018-07-09T15:42:32.093Z,78.64
2018-07-09T15:44:25.330Z,77.34
2018-07-09T15:45:25.278Z,77.63
2018-07-09T15:47:18.587Z,79.04
2018-07-09T15:48:18.511Z,78.94
2018-07-09T15:50:11.801Z,78.66
2018-07-09T15:51:11.747Z,79.33
2018-07-09T15:53:05.056Z,79.81
2018-07-09T15:54:04.980Z,80.00
2018-07-09T15:55:58.348Z,80.00
2018-07-09T15:56:58.292Z,79.52
2018-07-09T15:58:51.599Z,78.46
2018-07-09T15:59:51.524Z,78.94
2018-07-09T16:01:44.844Z,79.62
2018-07-09T16:02:44.757Z,78.46
2018-07-09T16:04:39.044Z,78.75
2018-07-09T16:05:38.989Z,78.75
2018-07-09T16:07:32.365Z,78.17
2018-07-09T16:08:32.288Z,78.94
2018-07-09T16:10:25.578Z,78.03
2018-07-09T16:11:25.522Z,78.42
2018-07-09T16:13:18.838Z,77.94
2018-07-09T16:14:18.762Z,77.94
2018-07-09T16:16:12.050Z,78.33
2018-07-09T16:17:11.992Z,78.71
2018-07-09T16:19:05.303Z,78.17
2018-07-09T16:20:05.226Z,77.88
2018-07-09T16:21:58.616Z,76.76
2018-07-09T16:22:58.458Z,75.70
2018-07-09T16:24:51.766Z,76.01
2018-07-09T16:25:51.690Z,76.82
2018-07-09T16:27:44.994Z,76.24
2018-07-09T16:28:44.981Z,74.99
2018-07-09T16:30:38.207Z,75.18
2018-07-09T16:31:38.151Z,75.14
2018-07-09T16:33:31.458Z,76.01
2018-07-09T16:34:31.381Z,76.01
2018-07-09T16:36:24.705Z,75.92
2018-07-09T16:37:24.612Z,75.67
2018-07-09T16:39:17.918Z,74.99
2018-07-09T16:40:17.845Z,75.14
2018-07-09T16:42:11.133Z,75.62
2018-07-09T16:43:11.075Z,76.50
2018-07-09T16:45:04.380Z,76.88
2018-07-09T16:46:04.302Z,77.17
2018-07-09T16:47:57.611Z,78.03
2018-07-09T16:48:57.564Z,78.58
2018-07-09T16:50:50.820Z,78.67
2018-07-09T16:51:50.764Z,78.81
2018-07-09T16:53:44.071Z,78.58
2018-07-09T16:54:44.001Z,78.19
2018-07-09T16:56:37.281Z,78.77
2018-07-09T16:57:37.226Z,78.96
2018-07-09T16:59:30.531Z,79.69
2018-07-09T17:00:30.453Z,79.98
2018-07-09T17:02:23.742Z,79.50
2018-07-09T17:03:23.682Z,80.46
2018-07-09T17:05:16.987Z,80.27
2018-07-09T17:06:16.912Z,80.56
2018-07-09T17:08:10.214Z,79.89
2018-07-09T17:09:10.131Z,79.98
2018-07-09T17:11:03.416Z,80.56
2018-07-09T17:12:03.359Z,79.69
2018-07-09T17:13:56.665Z,80.27
2018-07-09T17:14:56.589Z,80.94
2018-07-09T17:16:49.875Z,80.66
2018-07-09T17:17:49.816Z,81.14
2018-07-09T17:19:43.122Z,81.68
2018-07-09T17:20:43.044Z,82.54
2018-07-09T17:22:36.347Z,82.93
2018-07-09T17:23:36.289Z,82.83
2018-07-09T17:25:29.591Z,82.64
2018-07-09T17:26:29.546Z,82.39
2018-07-09T17:28:22.826Z,81.72
2018-07-09T17:29:22.742Z,82.83
2018-07-09T17:31:16.029Z,83.41
2018-07-09T17:32:15.971Z,83.85
2018-07-09T17:34:09.275Z,84.72
2018-07-09T17:35:09.197Z,85.58
2018-07-09T17:37:02.584Z,85.97
2018-07-09T17:38:02.436Z,86.35
2018-07-09T17:39:55.738Z,86.12
2018-07-09T17:40:55.665Z,86.79
2018-07-09T17:42:48.965Z,87.08
2018-07-09T17:43:48.983Z,86.65
2018-07-09T17:45:42.172Z,86.22
2018-07-09T17:46:42.113Z,86.79
2018-07-09T17:48:35.411Z,87.62
2018-07-09T17:49:35.332Z,88.19
2018-07-09T17:51:28.617Z,88.14
2018-07-09T17:52:28.556Z,87.56
2018-07-09T17:54:21.861Z,87.76
2018-07-09T17:55:21.782Z,87.90
2018-07-09T17:57:15.064Z,88.29
2018-07-09T17:58:15.004Z,87.90
2018-07-09T18:00:08.365Z,88.67
2018-07-09T18:01:08.285Z,89.06
2018-07-09T18:03:01.588Z,87.90
2018-07-09T18:04:01.508Z,88.19
2018-07-09T18:05:54.792Z,89.15
2018-07-09T18:06:54.730Z,89.01
2018-07-09T18:08:48.135Z,90.07
2018-07-09T18:09:47.949Z,90.75
2018-07-09T18:11:41.232Z,91.42
2018-07-09T18:12:41.168Z,91.03
2018-07-09T18:14:34.468Z,91.37
2018-07-09T18:15:34.403Z,92.24
2018-07-09T18:17:27.671Z,91.99
2018-07-09T18:18:27.612Z,91.47
2018-07-09T18:20:20.913Z,92.05
2018-07-09T18:21:20.842Z,92.05
2018-07-09T18:23:14.153Z,91.08
2018-07-09T18:24:14.059Z,90.99
2018-07-09T18:26:07.358Z,89.93
2018-07-09T18:27:07.296Z,89.45
2018-07-09T18:29:00.596Z,88.97
2018-07-09T18:30:00.516Z,89.54
2018-07-09T18:31:53.310Z,89.89
2018-07-09T18:32:53.287Z,90.17
2018-07-09T18:34:46.547Z,90.17
2018-07-09T18:35:46.468Z,90.94